Погода Нгабуна неделю

Южная Провинция, Малави

15 - 21 июля
  • 15июля
    Сегодня
    +12°
    +25°
    Ясно и безоблачно
    ВремяПогодаТемператураВлажностьДавлениеВетер, м/сВероятность осадков
    02:00Ясно и безоблачно+16°C56 %681 мм0.9 м/с5 %
    05:00Ясно и безоблачно+16°C57 %681 мм0.9 м/с5 %
    08:00Ясно и безоблачно+20°C62 %684 мм1.7 м/с5 %
    11:00Ясно и безоблачно+23°C37 %684 мм0.3 м/с5 %
    14:00Ясно и безоблачно+25°C33 %683 мм1.7 м/с5 %
    17:00Ясно и безоблачно+21°C57 %683 мм1.9 м/с5 %
    20:00Ясно и безоблачно+19°C39 %683 мм0.8 м/с5 %
    23:00Ясно и безоблачно+19°C39 %683 мм0.3 м/с5 %
  • 16июля
    Вторник
    +11°
    +24°
    Ясно и безоблачно
    ВремяПогодаТемператураВлажностьДавлениеВетер, м/сВероятность осадков
    02:00Ясно и безоблачно+14°C53 %681 мм2.0 м/с5 %
    05:00Ясно и безоблачно+13°C61 %681 мм1.7 м/с5 %
    08:00Ясно и безоблачно+19°C54 %683 мм1.5 м/с5 %
    11:00Ясно и безоблачно+22°C38 %684 мм2.1 м/с5 %
    14:00Ясно и безоблачно+24°C34 %683 мм2.8 м/с5 %
    17:00Ясно и безоблачно+21°C55 %682 мм2.4 м/с5 %
    20:00Ясно и безоблачно+17°C55 %682 мм2.1 м/с5 %
    23:00Практически безоблачно+15°C64 %682 мм2.0 м/с5 %
  • 17июля
    Среда
    +11°
    +25°
    Практически безоблачно
    ВремяПогодаТемператураВлажностьДавлениеВетер, м/сВероятность осадков
    02:00Ясно и безоблачно+12°C80 %681 мм1.7 м/с5 %
    05:00Ясно и безоблачно+13°C82 %681 мм1.2 м/с5 %
    08:00Ясно и безоблачно+18°C61 %684 мм1.4 м/с5 %
    11:00Ясно и безоблачно+23°C43 %685 мм0.5 м/с5 %
    14:00Практически безоблачно+25°C38 %684 мм2.0 м/с5 %
    17:00Ясно и безоблачно+21°C53 %683 мм1.8 м/с5 %
    20:00Ясно и безоблачно+16°C66 %683 мм1.9 м/с5 %
    23:00Ясно и безоблачно+14°C76 %682 мм1.9 м/с5 %
  • 18июля
    Четверг
    +12°
    +25°
    Ясно и безоблачно
    ВремяПогодаТемператураВлажностьДавлениеВетер, м/сВероятность осадков
    02:00Ясно и безоблачно+12°C86 %681 мм1.5 м/с5 %
    05:00Ясно и безоблачно+12°C91 %681 мм1.3 м/с5 %
    08:00Ясно и безоблачно+18°C68 %684 мм1.3 м/с5 %
    11:00Ясно и безоблачно+22°C43 %685 мм1.6 м/с5 %
    14:00Ясно и безоблачно+24°C36 %683 мм2.6 м/с5 %
    17:00Ясно и безоблачно+22°C64 %683 мм1.7 м/с5 %
    20:00Ясно и безоблачно+17°C73 %683 мм1.8 м/с5 %
    23:00Ясно и безоблачно+15°C78 %682 мм1.6 м/с5 %
  • 19июля
    Пятница
    +12°
    +26°
    Ясно и безоблачно
    ВремяПогодаТемператураВлажностьДавлениеВетер, м/сВероятность осадков
    02:00Ясно и безоблачно+15°C76 %680 мм1.4 м/с5 %
    05:00Ясно и безоблачно+13°C80 %680 мм1.5 м/с5 %
    08:00Ясно и безоблачно+20°C67 %683 мм0.6 м/с5 %
    11:00Ясно и безоблачно+24°C44 %684 мм0.5 м/с5 %
    14:00Ясно и безоблачно+26°C41 %682 мм1.4 м/с5 %
    17:00Ясно и безоблачно+23°C62 %682 мм1.7 м/с5 %
    20:00Ясно и безоблачно+20°C54 %682 мм1.2 м/с5 %
    23:00Ясно и безоблачно+19°C59 %681 мм1.2 м/с5 %
Мы используем cookies
Соглашаюсь